createdAt,value
2023-02-06T00:01:31.598Z,2.20
2023-02-06T00:04:17.011Z,1.80
2023-02-06T00:07:02.389Z,1.73
2023-02-06T00:09:47.672Z,2.00
2023-02-06T00:12:32.884Z,1.55
2023-02-06T00:15:18.369Z,1.90
2023-02-06T00:18:03.565Z,1.70
2023-02-06T00:20:48.896Z,1.85
2023-02-06T00:23:34.295Z,1.85
2023-02-06T00:26:19.790Z,2.10
2023-02-06T00:29:04.925Z,1.75
2023-02-06T00:31:50.187Z,1.85
2023-02-06T00:34:35.297Z,1.58
2023-02-06T00:37:20.732Z,1.70
2023-02-06T00:40:06.488Z,1.73
2023-02-06T00:42:51.572Z,1.50
2023-02-06T00:45:37.180Z,1.92
2023-02-06T00:48:22.732Z,1.85
2023-02-06T00:51:07.630Z,1.90
2023-02-06T00:53:52.800Z,1.88
2023-02-06T00:56:38.089Z,1.65
2023-02-06T00:59:23.377Z,2.00
2023-02-06T01:02:08.687Z,1.60
2023-02-06T01:04:53.973Z,1.83
2023-02-06T01:07:39.618Z,1.80
2023-02-06T01:10:24.650Z,2.08
2023-02-06T01:13:09.922Z,1.90
2023-02-06T01:15:55.153Z,1.80
2023-02-06T01:18:40.715Z,2.13
2023-02-06T01:21:26.051Z,2.08
2023-02-06T01:24:11.067Z,2.10
2023-02-06T01:26:56.395Z,2.30
2023-02-06T01:29:41.756Z,1.85
2023-02-06T01:32:26.920Z,1.92
2023-02-06T01:35:12.411Z,2.28
2023-02-06T01:37:57.592Z,2.20
2023-02-06T01:40:42.903Z,2.20
2023-02-06T01:43:29.840Z,2.40
2023-02-06T01:46:15.109Z,2.10
2023-02-06T01:49:00.436Z,2.00
2023-02-06T01:51:45.771Z,2.30
2023-02-06T01:54:31.230Z,2.40
2023-02-06T01:57:16.478Z,1.90
2023-02-06T02:00:04.224Z,2.15
2023-02-06T02:02:49.699Z,2.65
2023-02-06T02:05:35.269Z,2.33
2023-02-06T02:08:24.671Z,2.47
2023-02-06T02:11:11.026Z,2.03
2023-02-06T02:13:55.993Z,2.50
2023-02-06T02:16:59.747Z,2.88
2023-02-06T02:20:22.275Z,2.47
2023-02-06T02:23:22.209Z,2.20
2023-02-06T02:26:16.129Z,2.25
2023-02-06T02:29:22.927Z,2.63
2023-02-06T02:32:23.118Z,2.45
2023-02-06T02:35:34.699Z,1.90
2023-02-06T02:38:41.740Z,2.60
2023-02-06T02:41:28.225Z,2.35
2023-02-06T02:44:52.095Z,2.03
2023-02-06T02:47:58.901Z,2.50
2023-02-06T02:50:44.175Z,2.20
2023-02-06T02:53:29.590Z,2.20
2023-02-06T02:56:22.304Z,2.08
2023-02-06T02:59:16.245Z,2.20
2023-02-06T03:02:06.340Z,2.50
2023-02-06T03:04:59.625Z,2.13
2023-02-06T03:08:01.818Z,2.20
2023-02-06T03:11:05.014Z,2.05
2023-02-06T03:14:21.454Z,2.42
2023-02-06T03:17:09.718Z,2.05
2023-02-06T03:19:55.621Z,2.40
2023-02-06T03:22:40.826Z,2.25
2023-02-06T03:25:30.641Z,2.15
2023-02-06T03:28:22.204Z,2.10
2023-02-06T03:31:09.233Z,2.58
2023-02-06T03:34:11.568Z,2.03
2023-02-06T03:36:56.425Z,2.28
2023-02-06T03:39:41.848Z,2.28
2023-02-06T03:42:27.642Z,2.58
2023-02-06T03:45:17.497Z,2.30
2023-02-06T03:48:06.667Z,2.30
2023-02-06T03:50:52.100Z,2.20
2023-02-06T03:53:37.519Z,2.30
2023-02-06T03:56:35.180Z,2.50
2023-02-06T03:59:20.072Z,2.17
2023-02-06T04:02:05.527Z,2.38
2023-02-06T04:04:50.582Z,2.50
2023-02-06T04:07:36.007Z,2.38
2023-02-06T04:10:21.384Z,2.55
2023-02-06T04:13:06.645Z,2.20
2023-02-06T04:15:51.971Z,2.30
2023-02-06T04:18:37.104Z,2.45
2023-02-06T04:21:22.441Z,2.10
2023-02-06T04:24:08.096Z,2.63
2023-02-06T04:26:53.341Z,2.40
2023-02-06T04:29:38.741Z,2.20
2023-02-06T04:32:24.037Z,2.25
2023-02-06T04:35:09.426Z,2.60
2023-02-06T04:37:54.707Z,2.15
2023-02-06T04:40:39.872Z,2.05
2023-02-06T04:43:25.131Z,2.55
2023-02-06T04:46:10.241Z,2.40
2023-02-06T04:48:55.406Z,2.50
2023-02-06T04:51:40.711Z,2.15
2023-02-06T04:54:25.940Z,2.50
2023-02-06T04:57:11.128Z,2.45
2023-02-06T04:59:56.095Z,2.40
2023-02-06T05:02:41.425Z,2.67
2023-02-06T05:05:26.708Z,2.42
2023-02-06T05:08:12.123Z,2.42
2023-02-06T05:10:57.291Z,2.70
2023-02-06T05:13:42.473Z,2.63
2023-02-06T05:16:27.789Z,2.90
2023-02-06T05:19:12.901Z,2.30
2023-02-06T05:21:58.206Z,2.60
2023-02-06T05:24:43.403Z,2.60
2023-02-06T05:27:28.878Z,2.60
2023-02-06T05:30:14.260Z,2.33
2023-02-06T05:32:59.600Z,3.20
2023-02-06T05:35:44.890Z,2.95
2023-02-06T05:38:30.001Z,2.53
2023-02-06T05:41:15.847Z,2.50
2023-02-06T05:46:46.086Z,3.67
2023-02-06T05:49:31.213Z,2.63
2023-02-06T05:52:16.543Z,2.45
2023-02-06T05:55:01.884Z,2.67
2023-02-06T05:57:47.190Z,2.67
2023-02-06T06:00:32.732Z,2.55
2023-02-06T06:03:17.969Z,2.35
2023-02-06T06:06:03.359Z,2.60
2023-02-06T06:08:48.778Z,2.40
2023-02-06T06:11:34.111Z,2.38
2023-02-06T06:14:19.561Z,2.15
2023-02-06T06:17:04.871Z,2.58
2023-02-06T06:19:50.304Z,2.80
2023-02-06T06:22:35.679Z,2.50
2023-02-06T06:25:21.185Z,2.13
2023-02-06T06:28:06.612Z,2.58
2023-02-06T06:30:51.914Z,2.22
2023-02-06T06:33:37.406Z,2.80
2023-02-06T06:36:22.541Z,2.67
2023-02-06T06:39:07.798Z,2.42
2023-02-06T06:41:53.091Z,2.28
2023-02-06T06:44:38.280Z,2.83
2023-02-06T06:47:23.709Z,2.60
2023-02-06T06:50:09.109Z,2.92
2023-02-06T06:52:54.396Z,2.20
2023-02-06T06:55:39.707Z,2.25
2023-02-06T06:58:25.051Z,2.72
2023-02-06T07:01:10.220Z,2.78
2023-02-06T07:03:55.437Z,2.60
2023-02-06T07:06:40.744Z,2.38
2023-02-06T07:09:07.523Z,2.03
2023-02-06T07:11:34.100Z,2.35
2023-02-06T07:14:00.614Z,2.75
2023-02-06T07:16:27.122Z,2.50
2023-02-06T07:18:53.754Z,2.28
2023-02-06T07:21:20.245Z,2.50
2023-02-06T07:23:46.740Z,2.40
2023-02-06T07:26:13.222Z,2.53
2023-02-06T07:28:39.783Z,2.72
2023-02-06T07:31:06.956Z,3.22
2023-02-06T07:33:34.479Z,3.10
2023-02-06T07:36:03.506Z,2.45
2023-02-06T07:38:30.467Z,2.95
2023-02-06T07:41:01.281Z,2.50
2023-02-06T07:43:27.789Z,2.60
2023-02-06T07:45:54.307Z,2.85
2023-02-06T07:48:20.850Z,2.70
2023-02-06T07:50:47.340Z,2.90
2023-02-06T07:53:13.823Z,3.05
2023-02-06T07:55:40.535Z,3.65
2023-02-06T07:58:07.009Z,3.58
2023-02-06T08:00:34.421Z,3.35
2023-02-06T08:03:00.936Z,3.28
2023-02-06T08:05:28.738Z,3.13
2023-02-06T08:07:55.265Z,3.35
2023-02-06T08:10:22.468Z,3.53
2023-02-06T08:12:49.065Z,3.20
2023-02-06T08:15:16.372Z,2.70
2023-02-06T08:17:43.692Z,2.75
2023-02-06T08:20:11.086Z,3.00
2023-02-06T08:22:38.148Z,3.22
2023-02-06T08:25:05.208Z,3.28
2023-02-06T08:27:31.937Z,3.13
2023-02-06T08:29:58.530Z,3.78
2023-02-06T08:32:26.414Z,3.97
2023-02-06T08:34:52.983Z,4.65
2023-02-06T08:37:19.540Z,5.32
2023-02-06T08:39:46.067Z,4.63
2023-02-06T08:42:12.644Z,5.22
2023-02-06T08:44:39.159Z,4.45
2023-02-06T08:47:10.464Z,5.68
2023-02-06T08:49:37.222Z,5.70
2023-02-06T08:52:03.771Z,6.22
2023-02-06T08:54:30.330Z,6.35
2023-02-06T08:56:56.888Z,8.73
2023-02-06T08:59:23.394Z,8.82
2023-02-06T09:01:50.011Z,7.88
2023-02-06T09:04:16.668Z,7.53
2023-02-06T09:06:44.002Z,8.02
2023-02-06T09:09:10.942Z,8.13
2023-02-06T09:11:37.721Z,7.32
2023-02-06T09:14:04.781Z,6.32
2023-02-06T09:16:31.396Z,5.68
2023-02-06T09:18:57.932Z,6.00
2023-02-06T09:21:25.105Z,6.97
2023-02-06T09:23:53.450Z,6.55
2023-02-06T09:26:24.957Z,5.55
2023-02-06T09:29:01.236Z,5.10
2023-02-06T09:31:28.503Z,4.15
2023-02-06T09:33:55.073Z,5.05
2023-02-06T09:38:52.885Z,4.57
2023-02-06T09:41:22.345Z,4.82
2023-02-06T09:44:04.353Z,5.57
2023-02-06T09:46:34.290Z,5.32
2023-02-06T09:49:03.515Z,4.40
2023-02-06T09:51:36.873Z,4.28
2023-02-06T09:54:17.196Z,4.60
2023-02-06T09:57:05.078Z,5.63
2023-02-06T09:59:35.375Z,5.20
2023-02-06T10:02:10.991Z,5.15
2023-02-06T10:08:00.734Z,3.72
2023-02-06T10:10:46.080Z,3.63
2023-02-06T10:13:16.206Z,4.07
2023-02-06T10:15:44.834Z,3.72
2023-02-06T10:18:12.952Z,4.38
2023-02-06T10:20:43.271Z,4.28
2023-02-06T10:23:30.954Z,3.95
2023-02-06T10:26:17.255Z,3.70
2023-02-06T10:28:48.928Z,3.63
2023-02-06T10:31:21.561Z,3.65
2023-02-06T10:34:00.188Z,4.15
2023-02-06T10:36:36.451Z,3.80
2023-02-06T10:39:14.206Z,3.80
2023-02-06T10:42:12.337Z,4.78
2023-02-06T10:45:19.903Z,3.80
2023-02-06T10:48:03.226Z,3.80
2023-02-06T10:50:48.007Z,3.63
2023-02-06T10:53:19.021Z,3.53
2023-02-06T10:55:54.743Z,3.75
2023-02-06T10:58:47.596Z,4.00
2023-02-06T11:01:25.512Z,3.58
2023-02-06T11:04:06.127Z,3.58
2023-02-06T11:06:32.675Z,3.80
2023-02-06T11:08:59.269Z,2.65
2023-02-06T11:11:29.054Z,3.58
2023-02-06T11:14:01.659Z,4.10
2023-02-06T11:16:29.013Z,3.78
2023-02-06T11:18:56.475Z,4.43
2023-02-06T11:21:41.223Z,3.50
2023-02-06T11:24:09.243Z,3.20
2023-02-06T11:26:42.526Z,3.50
2023-02-06T11:29:22.073Z,3.67
2023-02-06T11:32:02.069Z,3.30
2023-02-06T11:34:44.158Z,3.28
2023-02-06T11:37:35.897Z,3.55
2023-02-06T11:40:14.589Z,3.80
2023-02-06T11:42:41.232Z,3.25
2023-02-06T11:45:20.106Z,3.42
2023-02-06T11:47:46.872Z,3.10
2023-02-06T11:50:13.724Z,3.53
2023-02-06T11:52:41.844Z,3.65
2023-02-06T11:55:28.396Z,2.92
2023-02-06T11:58:05.692Z,3.53
2023-02-06T12:00:32.391Z,2.88
2023-02-06T12:02:58.933Z,2.95
2023-02-06T12:05:27.249Z,3.38
2023-02-06T12:07:56.399Z,3.13
2023-02-06T12:10:23.457Z,2.60
2023-02-06T12:12:55.307Z,3.05
2023-02-06T12:15:44.783Z,2.88
2023-02-06T12:18:15.062Z,2.47
2023-02-06T12:20:57.956Z,2.35
2023-02-06T12:23:37.845Z,2.55
2023-02-06T12:26:07.971Z,2.65
2023-02-06T12:28:50.546Z,2.80
2023-02-06T12:31:22.032Z,2.97
2023-02-06T12:33:50.667Z,3.03
2023-02-06T12:36:25.430Z,2.72
2023-02-06T12:39:05.230Z,2.90
2023-02-06T12:41:37.729Z,3.10
2023-02-06T12:44:14.325Z,2.85
2023-02-06T12:46:40.898Z,3.10
2023-02-06T12:49:28.388Z,3.08
2023-02-06T12:52:21.898Z,2.80
2023-02-06T12:55:11.359Z,3.08
2023-02-06T12:57:37.943Z,3.00
2023-02-06T13:00:18.986Z,2.85
2023-02-06T13:03:06.146Z,2.80
2023-02-06T13:05:38.095Z,2.85
2023-02-06T13:08:15.722Z,2.67
2023-02-06T13:10:42.226Z,3.08
2023-02-06T13:13:25.062Z,2.65
2023-02-06T13:15:53.706Z,2.60
2023-02-06T13:18:42.098Z,2.60
2023-02-06T13:21:23.770Z,2.75
2023-02-06T13:24:02.651Z,2.85
2023-02-06T13:26:47.615Z,2.80
2023-02-06T13:29:26.202Z,2.78
2023-02-06T13:32:11.094Z,2.55
2023-02-06T13:34:43.551Z,2.38
2023-02-06T13:37:37.831Z,3.17
2023-02-06T13:40:24.671Z,2.92
2023-02-06T13:43:19.835Z,2.60
2023-02-06T13:45:51.691Z,2.45
2023-02-06T13:48:40.916Z,2.72
2023-02-06T13:51:44.803Z,2.25
2023-02-06T13:54:13.842Z,2.40
2023-02-06T13:56:52.203Z,2.15
2023-02-06T13:59:42.720Z,2.75
2023-02-06T14:02:12.164Z,2.53
2023-02-06T14:04:38.750Z,2.58
2023-02-06T14:07:05.176Z,3.00
2023-02-06T14:09:52.974Z,2.95
2023-02-06T14:12:37.684Z,2.50
2023-02-06T14:15:22.449Z,2.70
2023-02-06T14:18:00.668Z,2.55
2023-02-06T14:20:44.613Z,2.72
2023-02-06T14:23:25.468Z,2.70
2023-02-06T14:26:18.190Z,3.38
2023-02-06T14:28:59.717Z,2.78
2023-02-06T14:31:32.150Z,2.88
2023-02-06T14:34:37.417Z,2.50
2023-02-06T14:37:06.849Z,2.60
2023-02-06T14:39:43.466Z,2.33
2023-02-06T14:42:31.369Z,2.90
2023-02-06T14:45:01.718Z,2.88
2023-02-06T14:47:31.265Z,3.30
2023-02-06T14:49:58.011Z,2.95
2023-02-06T14:52:26.250Z,2.47
2023-02-06T14:54:52.834Z,3.20
2023-02-06T14:57:23.902Z,3.95
2023-02-06T14:59:58.681Z,4.05
2023-02-06T15:02:36.195Z,4.05
2023-02-06T15:05:03.308Z,3.60
2023-02-06T15:07:31.844Z,3.20
2023-02-06T15:10:10.331Z,3.50
2023-02-06T15:12:41.741Z,3.17
2023-02-06T15:15:17.644Z,3.20
2023-02-06T15:17:54.902Z,3.00
2023-02-06T15:20:21.338Z,4.40
2023-02-06T15:22:48.168Z,5.63
2023-02-06T15:25:26.201Z,11.52
2023-02-06T15:27:59.857Z,8.68
2023-02-06T15:30:26.418Z,5.47
2023-02-06T15:32:54.321Z,4.18
2023-02-06T15:35:31.737Z,3.88
2023-02-06T15:38:12.115Z,3.60
2023-02-06T15:40:40.962Z,3.20
2023-02-06T15:43:07.557Z,3.15
2023-02-06T15:45:36.164Z,3.60
2023-02-06T15:48:32.521Z,3.10
2023-02-06T15:53:38.473Z,2.75
2023-02-06T15:56:07.562Z,3.28
2023-02-06T15:58:34.416Z,3.00
2023-02-06T16:01:01.191Z,2.83
2023-02-06T16:03:29.287Z,3.78
2023-02-06T16:05:56.184Z,3.10
2023-02-06T16:08:33.432Z,3.53
2023-02-06T16:11:05.568Z,3.30
2023-02-06T16:13:32.219Z,3.60
2023-02-06T16:16:10.811Z,3.33
2023-02-06T16:18:38.368Z,3.55
2023-02-06T16:21:10.824Z,3.00
2023-02-06T16:23:47.072Z,3.10
2023-02-06T16:26:18.819Z,2.70
2023-02-06T16:29:14.346Z,2.53
2023-02-06T16:31:42.473Z,2.87
2023-02-06T16:34:39.489Z,3.28
2023-02-06T16:37:06.402Z,2.75
2023-02-06T16:39:32.982Z,3.08
2023-02-06T16:41:59.568Z,2.90
2023-02-06T16:44:36.089Z,3.60
2023-02-06T16:47:12.453Z,2.80
2023-02-06T16:49:38.999Z,3.35
2023-02-06T16:52:05.648Z,2.85
2023-02-06T16:54:32.255Z,3.30
2023-02-06T16:57:11.804Z,2.47
2023-02-06T16:59:38.359Z,2.65
2023-02-06T17:02:12.311Z,3.00
2023-02-06T17:04:39.109Z,3.00
2023-02-06T17:07:05.958Z,3.08
2023-02-06T17:09:32.476Z,3.22
2023-02-06T17:11:59.001Z,3.47
2023-02-06T17:14:25.559Z,2.97
2023-02-06T17:16:52.142Z,3.10
2023-02-06T17:19:18.689Z,4.18
2023-02-06T17:21:45.288Z,3.30
2023-02-06T17:24:11.899Z,3.15
2023-02-06T17:26:38.447Z,3.42
2023-02-06T17:29:05.269Z,3.60
2023-02-06T17:31:31.936Z,3.00
2023-02-06T17:33:58.516Z,3.45
2023-02-06T17:36:25.058Z,3.13
2023-02-06T17:38:51.693Z,3.22
2023-02-06T17:41:18.276Z,2.90
2023-02-06T17:43:45.045Z,3.13
2023-02-06T17:46:11.747Z,3.25
2023-02-06T17:48:38.476Z,3.00
2023-02-06T17:51:05.353Z,2.70
2023-02-06T17:53:31.924Z,2.85
2023-02-06T17:56:05.970Z,3.05
2023-02-06T17:58:32.684Z,3.03
2023-02-06T18:00:59.280Z,3.15
2023-02-06T18:03:28.839Z,3.25
2023-02-06T18:06:01.566Z,3.55
2023-02-06T18:08:28.496Z,3.22
2023-02-06T18:11:01.220Z,3.15
2023-02-06T18:13:27.796Z,3.00
2023-02-06T18:15:58.216Z,3.13
2023-02-06T18:18:24.784Z,2.80
2023-02-06T18:20:51.388Z,3.13
2023-02-06T18:23:17.997Z,2.78
2023-02-06T18:25:47.075Z,2.70
2023-02-06T18:28:13.715Z,2.70
2023-02-06T18:30:44.042Z,2.85
2023-02-06T18:33:10.768Z,3.00
2023-02-06T18:35:41.404Z,3.80
2023-02-06T18:38:08.377Z,3.05
2023-02-06T18:40:38.268Z,3.25
2023-02-06T18:43:05.428Z,2.90
2023-02-06T18:45:32.077Z,3.00
2023-02-06T18:47:58.612Z,3.08
2023-02-06T18:50:25.158Z,3.00
2023-02-06T18:52:51.710Z,2.78
2023-02-06T18:55:18.303Z,2.47
2023-02-06T18:57:44.872Z,3.10
2023-02-06T19:00:13.255Z,2.97
2023-02-06T19:02:40.072Z,2.67
2023-02-06T19:05:06.670Z,2.55
2023-02-06T19:07:33.212Z,3.13
2023-02-06T19:10:00.810Z,2.63
2023-02-06T19:12:27.856Z,3.10
2023-02-06T19:14:55.547Z,2.95
2023-02-06T19:17:22.629Z,3.00
2023-02-06T19:19:49.220Z,2.85
2023-02-06T19:22:15.819Z,2.70
2023-02-06T19:24:42.461Z,2.60
2023-02-06T19:27:09.931Z,2.85
2023-02-06T19:29:36.740Z,2.67
2023-02-06T19:32:07.158Z,3.15
2023-02-06T19:34:35.125Z,3.03
2023-02-06T19:37:02.919Z,2.90
2023-02-06T19:39:29.410Z,2.70
2023-02-06T19:41:55.970Z,2.70
2023-02-06T19:44:22.499Z,3.00
2023-02-06T19:46:49.040Z,3.10
2023-02-06T19:49:15.538Z,3.03
2023-02-06T19:51:42.162Z,3.28
2023-02-06T19:54:08.727Z,2.90
2023-02-06T19:56:37.226Z,3.42
2023-02-06T19:59:23.915Z,3.05
2023-02-06T20:01:55.241Z,2.60
2023-02-06T20:04:22.929Z,3.15
2023-02-06T20:06:49.796Z,3.60
2023-02-06T20:09:16.287Z,3.33
2023-02-06T20:11:42.858Z,3.92
2023-02-06T20:14:09.441Z,3.22
2023-02-06T20:16:37.608Z,3.40
2023-02-06T20:19:19.142Z,3.20
2023-02-06T20:21:52.149Z,3.55
2023-02-06T20:24:21.303Z,3.60
2023-02-06T20:26:48.938Z,3.33
2023-02-06T20:29:26.710Z,3.17
2023-02-06T20:31:56.621Z,2.90
2023-02-06T20:34:29.920Z,3.03
2023-02-06T20:37:05.476Z,2.97
2023-02-06T20:39:32.299Z,3.83
2023-02-06T20:41:59.037Z,3.00
2023-02-06T20:44:26.382Z,3.75
2023-02-06T20:46:52.988Z,3.40
2023-02-06T20:49:24.397Z,3.75
2023-02-06T20:51:51.282Z,3.55
2023-02-06T20:54:19.056Z,3.78
2023-02-06T20:56:45.586Z,3.47
2023-02-06T20:59:13.006Z,3.28
2023-02-06T21:01:39.638Z,2.88
2023-02-06T21:04:07.861Z,2.85
2023-02-06T21:06:35.349Z,2.92
2023-02-06T21:09:02.668Z,2.95
2023-02-06T21:11:30.877Z,3.13
2023-02-06T21:13:58.048Z,2.70
2023-02-06T21:16:25.452Z,3.40
2023-02-06T21:18:52.031Z,3.80
2023-02-06T21:21:18.539Z,2.38
2023-02-06T21:23:46.058Z,2.88
2023-02-06T21:26:12.660Z,2.80
2023-02-06T21:28:39.300Z,3.13
2023-02-06T21:31:08.434Z,2.60
2023-02-06T21:33:35.486Z,3.10
2023-02-06T21:36:02.762Z,3.13
2023-02-06T21:38:29.369Z,3.10
2023-02-06T21:40:56.583Z,2.40
2023-02-06T21:43:23.416Z,2.70
2023-02-06T21:45:50.079Z,3.00
2023-02-06T21:48:16.607Z,3.13
2023-02-06T21:50:43.143Z,2.55
2023-02-06T21:53:09.672Z,3.10
2023-02-06T21:55:41.624Z,2.80
2023-02-06T21:58:08.150Z,3.05
2023-02-06T22:00:34.702Z,2.65
2023-02-06T22:03:01.250Z,2.80
2023-02-06T22:05:28.415Z,2.70
2023-02-06T22:07:54.960Z,2.80
2023-02-06T22:10:21.470Z,2.35
2023-02-06T22:12:48.724Z,2.90
2023-02-06T22:15:15.275Z,2.65
2023-02-06T22:17:41.937Z,2.60
2023-02-06T22:20:08.708Z,2.97
2023-02-06T22:22:35.236Z,2.90
2023-02-06T22:25:01.787Z,2.80
2023-02-06T22:27:28.317Z,1.85
2023-02-06T22:29:54.803Z,2.67
2023-02-06T22:32:21.370Z,2.47
2023-02-06T22:34:47.940Z,2.53
2023-02-06T22:37:14.528Z,2.53
2023-02-06T22:39:41.049Z,3.15
2023-02-06T22:42:07.555Z,2.60
2023-02-06T22:44:34.133Z,2.72
2023-02-06T22:47:00.890Z,2.97
2023-02-06T22:49:27.447Z,3.15
2023-02-06T22:51:53.970Z,3.13
2023-02-06T22:54:20.501Z,2.75
2023-02-06T22:56:47.058Z,3.00
2023-02-06T22:59:15.742Z,3.00
2023-02-06T23:01:44.532Z,2.75
2023-02-06T23:04:15.764Z,2.65
2023-02-06T23:06:42.578Z,2.85
2023-02-06T23:09:10.989Z,2.53
2023-02-06T23:11:37.598Z,2.78
2023-02-06T23:14:05.041Z,2.30
2023-02-06T23:16:32.033Z,2.60
2023-02-06T23:18:59.524Z,2.13
2023-02-06T23:21:26.213Z,2.60
2023-02-06T23:23:54.778Z,2.50
2023-02-06T23:26:21.249Z,2.25
2023-02-06T23:28:48.004Z,2.80
2023-02-06T23:31:14.598Z,2.65
2023-02-06T23:33:41.189Z,2.75
2023-02-06T23:36:10.973Z,2.60
2023-02-06T23:38:37.501Z,2.75
2023-02-06T23:41:08.472Z,2.78
2023-02-06T23:43:35.155Z,2.90
2023-02-06T23:46:02.064Z,2.35
2023-02-06T23:48:28.646Z,2.53
2023-02-06T23:50:55.248Z,2.40
2023-02-06T23:53:21.808Z,2.30
2023-02-06T23:55:48.400Z,2.35
2023-02-06T23:58:15.015Z,2.38
